Time;durP1;ratioP1;P1;durP2;ratioP2;P2;SDS_P1;SDS_P2;PMS_P1;PMS_P2;Temp;Humidity;BMP_temperature;BMP_pressure;BME280_temperature;BME280_humidity;BME280_pressure;Samples;Min_cycle;Max_cycle;Signal;HPM_P1;HPM_P2
2022/06/12 00:01:17;;;;;;;;;;;23.00;55.50;;;;;;4984380;28;19922;-70
2022/06/12 00:03:42;;;;;;;;;;;22.90;55.40;;;;;;4984619;28;20338;-69
2022/06/12 00:06:08;;;;;;;;;;;23.00;55.50;;;;;;4984351;28;19914;-70
2022/06/12 00:08:34;;;;;;;;;;;23.00;55.40;;;;;;4984496;28;19964;-70
2022/06/12 00:11:00;;;;;;;;;;;22.90;55.40;;;;;;4983806;28;19918;-68
2022/06/12 00:13:26;;;;;;;;;;;22.90;55.40;;;;;;4984106;28;20316;-68
2022/06/12 00:15:52;;;;;;;;;;;22.90;55.50;;;;;;4984604;28;19914;-69
2022/06/12 00:18:17;;;;;;;;;;;22.90;55.30;;;;;;4984564;28;19914;-69
2022/06/12 00:20:43;;;;;;;;;;;22.90;55.40;;;;;;4984069;28;19918;-69
2022/06/12 00:23:09;;;;;;;;;;;22.90;55.40;;;;;;4983716;28;19925;-70
2022/06/12 00:25:35;;;;;;;;;;;22.90;55.50;;;;;;4984240;28;20016;-69
2022/06/12 00:28:00;;;;;;;;;;;22.90;55.40;;;;;;4983582;28;19929;-70
2022/06/12 00:30:26;;;;;;;;;;;22.90;55.40;;;;;;4983966;28;19918;-70
2022/06/12 00:32:52;;;;;;;;;;;22.90;55.50;;;;;;4983550;28;20408;-70
2022/06/12 00:35:28;;;;;;;;;;;22.90;55.30;;;;;;4984146;28;19956;-70
2022/06/12 00:37:53;;;;;;;;;;;22.90;55.40;;;;;;4983372;28;19921;-70
2022/06/12 00:40:19;;;;;;;;;;;22.90;55.40;;;;;;4983566;28;20440;-70
2022/06/12 00:42:46;;;;;;;;;;;22.90;55.30;;;;;;4983469;28;19914;-70
2022/06/12 00:45:26;;;;;;;;;;;22.90;55.50;;;;;;4984181;28;20000;-69
2022/06/12 00:47:55;;;;;;;;;;;22.90;55.50;;;;;;4983602;28;19952;-69
2022/06/12 00:50:21;;;;;;;;;;;22.90;55.50;;;;;;4983975;28;20045;-70
2022/06/12 00:52:47;;;;;;;;;;;22.90;55.50;;;;;;4982447;28;20009;-70
2022/06/12 00:55:14;;;;;;;;;;;22.90;55.50;;;;;;4982614;28;20006;-70
2022/06/12 00:57:40;;;;;;;;;;;22.90;55.40;;;;;;4982490;28;19924;-70
2022/06/12 01:00:07;;;;;;;;;;;22.90;55.50;;;;;;4982633;28;19914;-69
2022/06/12 01:02:33;;;;;;;;;;;22.90;55.50;;;;;;4983154;28;19914;-70
2022/06/12 01:07:43;;;;;;;;;;;22.90;55.50;;;;;;4983481;28;19968;-68
2022/06/12 01:10:10;;;;;;;;;;;22.80;55.30;;;;;;4984312;28;19918;-69
2022/06/12 01:12:37;;;;;;;;;;;22.80;55.40;;;;;;4982275;28;20128;-70
2022/06/12 01:15:07;;;;;;;;;;;22.90;55.50;;;;;;4982374;28;19945;-70
2022/06/12 01:17:35;;;;;;;;;;;22.80;55.50;;;;;;4981664;28;25492;-69
2022/06/12 01:20:03;;;;;;;;;;;22.80;55.40;;;;;;4983520;28;19914;-69
2022/06/12 01:22:34;;;;;;;;;;;22.80;55.50;;;;;;4981726;28;20358;-68
2022/06/12 01:24:59;;;;;;;;;;;22.80;55.40;;;;;;4984331;28;19993;-70
2022/06/12 01:27:44;;;;;;;;;;;22.80;55.40;;;;;;4983914;28;19993;-70
2022/06/12 01:30:28;;;;;;;;;;;22.80;55.40;;;;;;4984073;28;19988;-70
2022/06/12 01:33:01;;;;;;;;;;;22.80;55.40;;;;;;4983268;28;20474;-69
2022/06/12 01:35:36;;;;;;;;;;;22.80;55.40;;;;;;4982104;28;19926;-70
2022/06/12 01:38:05;;;;;;;;;;;22.80;55.30;;;;;;4981973;28;19922;-70
2022/06/12 01:40:32;;;;;;;;;;;22.80;55.30;;;;;;4985836;28;20045;-70
2022/06/12 01:43:16;;;;;;;;;;;22.80;55.30;;;;;;4986263;28;19918;-70
2022/06/12 01:45:56;;;;;;;;;;;22.80;55.30;;;;;;4986666;28;19921;-69
2022/06/12 01:48:27;;;;;;;;;;;22.80;55.20;;;;;;4984591;28;19996;-70
2022/06/12 01:50:56;;;;;;;;;;;22.80;55.20;;;;;;4986645;28;19949;-69
2022/06/12 01:53:28;;;;;;;;;;;22.80;55.10;;;;;;4986622;28;19921;-69
2022/06/12 01:55:55;;;;;;;;;;;22.80;55.10;;;;;;4985955;28;19918;-70
2022/06/12 01:58:27;;;;;;;;;;;22.80;55.30;;;;;;4985144;28;19918;-70
2022/06/12 02:00:54;;;;;;;;;;;22.70;55.20;;;;;;4984789;28;20016;-70
2022/06/12 02:03:24;;;;;;;;;;;22.70;55.10;;;;;;4968639;28;19980;-70
2022/06/12 02:05:57;;;;;;;;;;;22.80;55.10;;;;;;4985225;28;20313;-70
2022/06/12 02:08:24;;;;;;;;;;;22.70;55.10;;;;;;4984758;28;19921;-70
2022/06/12 02:10:50;;;;;;;;;;;22.70;55.20;;;;;;4984934;28;20013;-70
2022/06/12 02:13:18;;;;;;;;;;;22.80;55.20;;;;;;4986136;28;20385;-69
2022/06/12 02:15:45;;;;;;;;;;;22.80;55.20;;;;;;4984586;28;20035;-69
2022/06/12 02:18:15;;;;;;;;;;;22.70;55.20;;;;;;4984660;28;19925;-69
2022/06/12 02:20:42;;;;;;;;;;;22.70;55.10;;;;;;4981807;28;19945;-69
2022/06/12 02:23:09;;;;;;;;;;;22.70;55.20;;;;;;4965795;28;19914;-70
2022/06/12 02:25:35;;;;;;;;;;;22.80;55.20;;;;;;4983151;28;19914;-70
2022/06/12 02:28:03;;;;;;;;;;;22.70;55.10;;;;;;4984754;28;19918;-70
2022/06/12 02:30:32;;;;;;;;;;;22.70;55.20;;;;;;4984396;28;20297;-70
2022/06/12 02:33:05;;;;;;;;;;;22.70;55.30;;;;;;4983518;28;19918;-69
2022/06/12 02:35:30;;;;;;;;;;;22.70;55.20;;;;;;4984366;28;19918;-69
2022/06/12 02:37:56;;;;;;;;;;;22.70;55.30;;;;;;4986020;28;19922;-70
2022/06/12 02:40:41;;;;;;;;;;;22.70;55.10;;;;;;4984448;28;19914;-69
2022/06/12 02:43:08;;;;;;;;;;;22.70;55.20;;;;;;4984102;28;19914;-67
2022/06/12 02:45:52;;;;;;;;;;;22.70;55.10;;;;;;4984595;28;20380;-70
2022/06/12 02:48:18;;;;;;;;;;;22.70;55.10;;;;;;4985328;28;19914;-69
2022/06/12 02:50:44;;;;;;;;;;;22.60;55.00;;;;;;4983718;28;19914;-68
2022/06/12 02:53:14;;;;;;;;;;;22.70;55.10;;;;;;4983415;28;19921;-69
2022/06/12 02:55:44;;;;;;;;;;;22.60;55.10;;;;;;4983241;28;20012;-69
2022/06/12 02:58:13;;;;;;;;;;;22.60;55.20;;;;;;4984187;28;19923;-70
2022/06/12 03:00:57;;;;;;;;;;;22.70;55.20;;;;;;4986298;28;19921;-70
2022/06/12 03:03:38;;;;;;;;;;;22.60;55.10;;;;;;4983326;28;20454;-69
2022/06/12 03:06:03;;;;;;;;;;;22.60;55.20;;;;;;4984778;28;19914;-70
2022/06/12 03:08:30;;;;;;;;;;;22.60;55.20;;;;;;4985410;28;19922;-70
2022/06/12 03:11:07;;;;;;;;;;;22.60;55.20;;;;;;4985135;28;19914;-69
2022/06/12 03:13:33;;;;;;;;;;;22.70;55.30;;;;;;4983887;28;19960;-69
2022/06/12 03:16:00;;;;;;;;;;;22.60;55.20;;;;;;4985148;28;19913;-70
2022/06/12 03:18:27;;;;;;;;;;;22.60;55.10;;;;;;4985563;28;20332;-70
2022/06/12 03:20:55;;;;;;;;;;;22.60;55.10;;;;;;4983562;28;19914;-69
2022/06/12 03:23:24;;;;;;;;;;;22.60;55.20;;;;;;4983705;28;20516;-69
2022/06/12 03:25:50;;;;;;;;;;;22.60;55.20;;;;;;4983711;28;20351;-70
2022/06/12 03:28:32;;;;;;;;;;;22.60;55.10;;;;;;4984770;28;20503;-68
2022/06/12 03:31:03;;;;;;;;;;;22.60;55.10;;;;;;4983260;28;19921;-69
2022/06/12 03:33:28;;;;;;;;;;;22.60;55.10;;;;;;4984096;28;20333;-70
2022/06/12 03:36:03;;;;;;;;;;;22.60;55.10;;;;;;4984576;28;19957;-70
2022/06/12 03:38:38;;;;;;;;;;;22.60;55.20;;;;;;4983435;28;19922;-70
2022/06/12 03:41:06;;;;;;;;;;;22.70;55.20;;;;;;4983333;28;19925;-70
2022/06/12 03:43:37;;;;;;;;;;;22.70;55.10;;;;;;4982902;28;20367;-70
2022/06/12 03:46:12;;;;;;;;;;;22.60;55.10;;;;;;4984915;28;19961;-70
2022/06/12 03:48:50;;;;;;;;;;;22.70;55.10;;;;;;4983965;28;21020;-69
2022/06/12 03:51:17;;;;;;;;;;;22.70;55.10;;;;;;4983104;28;19963;-69
2022/06/12 03:53:43;;;;;;;;;;;22.60;55.10;;;;;;4983209;28;19914;-70
2022/06/12 03:59:17;;;;;;;;;;;22.70;55.30;;;;;;4964466;28;19925;-69
2022/06/12 04:01:42;;;;;;;;;;;22.70;55.30;;;;;;4981986;28;19921;-70
2022/06/12 04:04:08;;;;;;;;;;;22.60;55.30;;;;;;4995103;28;19918;-70
2022/06/12 04:06:33;;;;;;;;;;;22.60;55.30;;;;;;4996849;28;20058;-69
2022/06/12 04:09:00;;;;;;;;;;;22.60;55.40;;;;;;5002879;28;19920;-70
2022/06/12 04:11:26;;;;;;;;;;;22.60;55.50;;;;;;4992223;28;19918;-69
2022/06/12 04:13:51;;;;;;;;;;;22.60;55.60;;;;;;4982550;28;19941;-69
2022/06/12 04:16:24;;;;;;;;;;;22.60;55.50;;;;;;4984018;28;19932;-67
2022/06/12 04:18:50;;;;;;;;;;;22.60;55.60;;;;;;4986803;28;19977;-70
2022/06/12 04:21:24;;;;;;;;;;;22.60;55.70;;;;;;4994629;28;20012;-66
2022/06/12 04:24:09;;;;;;;;;;;22.60;55.60;;;;;;4984440;28;19937;-70
2022/06/12 04:26:36;;;;;;;;;;;22.60;55.60;;;;;;4984024;28;19914;-70
2022/06/12 04:29:22;;;;;;;;;;;22.60;55.60;;;;;;4983801;28;20005;-70
2022/06/12 04:31:48;;;;;;;;;;;22.60;55.50;;;;;;4983023;28;19914;-70
2022/06/12 04:34:14;;;;;;;;;;;22.60;55.60;;;;;;4983873;28;19918;-70
2022/06/12 04:36:40;;;;;;;;;;;22.60;55.60;;;;;;4983168;28;20557;-69
2022/06/12 04:39:06;;;;;;;;;;;22.60;55.50;;;;;;4984121;28;19964;-68
2022/06/12 04:41:32;;;;;;;;;;;22.60;55.60;;;;;;4982656;28;19918;-69
2022/06/12 04:43:57;;;;;;;;;;;22.60;55.60;;;;;;4984685;28;19913;-70
2022/06/12 04:46:23;;;;;;;;;;;22.60;55.60;;;;;;4981915;28;19960;-70
2022/06/12 04:48:49;;;;;;;;;;;22.60;55.60;;;;;;4983930;28;19921;-69
2022/06/12 04:51:14;;;;;;;;;;;22.60;55.50;;;;;;4983043;28;19918;-69
2022/06/12 04:53:40;;;;;;;;;;;22.60;55.50;;;;;;4983317;28;19914;-70
2022/06/12 04:56:06;;;;;;;;;;;22.60;55.40;;;;;;4983686;28;20376;-70
2022/06/12 04:58:31;;;;;;;;;;;22.60;55.40;;;;;;4983882;28;19914;-69
2022/06/12 05:00:57;;;;;;;;;;;22.60;55.50;;;;;;4983716;28;20389;-69
2022/06/12 05:03:22;;;;;;;;;;;22.60;55.50;;;;;;4983962;28;19914;-68
2022/06/12 05:05:48;;;;;;;;;;;22.60;56.20;;;;;;4983938;28;19918;-69
2022/06/12 05:08:13;;;;;;;;;;;22.60;55.50;;;;;;4983381;28;19914;-69
2022/06/12 05:10:39;;;;;;;;;;;22.60;55.50;;;;;;4983748;28;19952;-69
2022/06/12 05:13:05;;;;;;;;;;;22.60;55.50;;;;;;4983118;28;19988;-69
2022/06/12 05:15:30;;;;;;;;;;;22.60;55.80;;;;;;4986192;28;19924;-70
2022/06/12 05:17:56;;;;;;;;;;;22.60;55.80;;;;;;4987977;28;20391;-70
2022/06/12 05:20:23;;;;;;;;;;;22.60;55.80;;;;;;4986002;28;19914;-69
2022/06/12 05:22:48;;;;;;;;;;;22.60;55.60;;;;;;4986720;28;20376;-70
2022/06/12 05:25:14;;;;;;;;;;;22.60;55.50;;;;;;4987278;28;19921;-69
2022/06/12 05:27:39;;;;;;;;;;;22.60;55.50;;;;;;4985791;28;20439;-68
2022/06/12 05:30:06;;;;;;;;;;;22.60;55.50;;;;;;4987126;28;19940;-69
2022/06/12 05:32:32;;;;;;;;;;;22.60;55.40;;;;;;4986424;28;19997;-68
2022/06/12 05:34:57;;;;;;;;;;;22.60;55.40;;;;;;4987397;28;20004;-70
2022/06/12 05:37:23;;;;;;;;;;;22.70;55.50;;;;;;4986926;28;20955;-70
2022/06/12 05:39:48;;;;;;;;;;;22.60;55.30;;;;;;4986707;28;19913;-70
2022/06/12 05:42:14;;;;;;;;;;;22.70;55.50;;;;;;4986959;28;20025;-70
2022/06/12 05:44:39;;;;;;;;;;;22.70;55.40;;;;;;4986687;28;19914;-71
2022/06/12 05:47:05;;;;;;;;;;;22.70;55.40;;;;;;4986900;28;20541;-71
2022/06/12 05:49:30;;;;;;;;;;;22.70;55.30;;;;;;4986693;28;19969;-70
2022/06/12 05:51:56;;;;;;;;;;;22.70;55.30;;;;;;4986890;28;19914;-70
2022/06/12 05:54:21;;;;;;;;;;;22.70;55.30;;;;;;4985358;28;19917;-68
2022/06/12 05:56:47;;;;;;;;;;;22.60;55.30;;;;;;4986502;28;20292;-69
2022/06/12 05:59:12;;;;;;;;;;;22.70;55.40;;;;;;4986758;28;19914;-68
2022/06/12 06:01:38;;;;;;;;;;;22.70;55.30;;;;;;4986218;28;19913;-70
2022/06/12 06:04:03;;;;;;;;;;;22.70;55.30;;;;;;4986197;28;19921;-71
2022/06/12 06:06:30;;;;;;;;;;;22.70;55.40;;;;;;4986582;28;19960;-71
2022/06/12 06:08:56;;;;;;;;;;;22.70;55.30;;;;;;4985746;28;19913;-70
2022/06/12 06:11:21;;;;;;;;;;;22.70;55.30;;;;;;4986285;28;19976;-69
2022/06/12 06:13:47;;;;;;;;;;;22.70;55.30;;;;;;4985821;28;19918;-71
2022/06/12 06:16:12;;;;;;;;;;;22.70;55.30;;;;;;4985559;28;19920;-71
2022/06/12 06:18:40;;;;;;;;;;;22.70;55.30;;;;;;4986208;28;19914;-68
2022/06/12 06:21:05;;;;;;;;;;;22.70;55.30;;;;;;4985863;28;19956;-68
2022/06/12 06:23:31;;;;;;;;;;;22.70;55.40;;;;;;4985973;28;20336;-68
2022/06/12 06:25:56;;;;;;;;;;;22.80;55.40;;;;;;4985866;28;19914;-70
2022/06/12 06:28:22;;;;;;;;;;;22.70;55.30;;;;;;4986167;28;19973;-70
2022/06/12 06:30:47;;;;;;;;;;;22.80;55.40;;;;;;4986540;28;19922;-70
2022/06/12 06:33:13;;;;;;;;;;;22.70;55.30;;;;;;4985275;28;19913;-71
2022/06/12 06:35:38;;;;;;;;;;;22.80;55.40;;;;;;4986159;28;19925;-70
2022/06/12 06:38:04;;;;;;;;;;;22.80;55.40;;;;;;4985643;28;19969;-70
2022/06/12 06:40:29;;;;;;;;;;;22.80;55.40;;;;;;4984469;28;19921;-69
2022/06/12 06:42:55;;;;;;;;;;;22.80;55.50;;;;;;4983815;28;19921;-69
2022/06/12 06:48:05;;;;;;;;;;;22.80;55.30;;;;;;4985866;28;19925;-70
2022/06/12 06:50:30;;;;;;;;;;;22.80;55.30;;;;;;4986299;28;19914;-67
2022/06/12 06:52:56;;;;;;;;;;;22.80;55.30;;;;;;4986069;28;19918;-70
2022/06/12 06:55:21;;;;;;;;;;;22.70;55.30;;;;;;4985849;28;20300;-66
2022/06/12 06:57:47;;;;;;;;;;;22.70;55.20;;;;;;4986267;28;19948;-68
2022/06/12 07:00:14;;;;;;;;;;;22.80;55.30;;;;;;4985084;28;19921;-69
2022/06/12 07:02:39;;;;;;;;;;;22.80;55.30;;;;;;4968092;28;20399;-70
2022/06/12 07:05:05;;;;;;;;;;;22.70;55.20;;;;;;4984081;28;19913;-70
2022/06/12 07:07:30;;;;;;;;;;;22.70;55.30;;;;;;4985439;28;20387;-70
2022/06/12 07:09:56;;;;;;;;;;;22.70;55.20;;;;;;4985766;28;19917;-71
2022/06/12 07:12:21;;;;;;;;;;;22.80;55.30;;;;;;4983610;28;20396;-70
2022/06/12 07:14:47;;;;;;;;;;;22.70;55.20;;;;;;4985634;28;19922;-69
2022/06/12 07:17:13;;;;;;;;;;;22.70;55.20;;;;;;4985727;28;19945;-69
2022/06/12 07:19:38;;;;;;;;;;;22.70;55.20;;;;;;4985521;28;19921;-68
2022/06/12 07:22:04;;;;;;;;;;;22.80;55.30;;;;;;4985296;28;19918;-69
2022/06/12 07:24:30;;;;;;;;;;;22.80;55.30;;;;;;4986191;28;19914;-69
2022/06/12 07:26:55;;;;;;;;;;;22.80;55.20;;;;;;4984330;28;20443;-70
2022/06/12 07:29:21;;;;;;;;;;;22.70;55.20;;;;;;4982452;28;19965;-71
2022/06/12 07:31:46;;;;;;;;;;;22.70;55.20;;;;;;4983697;28;20473;-66
2022/06/12 07:34:12;;;;;;;;;;;22.70;55.20;;;;;;4983930;28;20004;-70
2022/06/12 07:36:38;;;;;;;;;;;22.70;55.10;;;;;;4983255;28;19926;-70
2022/06/12 07:39:05;;;;;;;;;;;22.70;55.10;;;;;;4983022;28;20492;-70
2022/06/12 07:41:30;;;;;;;;;;;22.70;55.20;;;;;;4983374;28;19914;-70
2022/06/12 07:43:56;;;;;;;;;;;22.80;55.30;;;;;;4984131;28;19940;-69
2022/06/12 07:46:21;;;;;;;;;;;22.70;55.40;;;;;;4984983;28;20408;-68
2022/06/12 07:48:47;;;;;;;;;;;22.80;55.30;;;;;;4984983;28;20021;-68
2022/06/12 07:51:14;;;;;;;;;;;22.70;55.30;;;;;;4984848;28;19921;-69
2022/06/12 07:53:40;;;;;;;;;;;22.70;55.20;;;;;;4982692;28;19913;-65
2022/06/12 07:56:05;;;;;;;;;;;22.70;55.30;;;;;;4982905;28;19913;-68
2022/06/12 07:58:31;;;;;;;;;;;22.70;55.30;;;;;;4983413;28;19918;-69
2022/06/12 08:00:57;;;;;;;;;;;22.70;55.30;;;;;;4983516;28;19913;-68
2022/06/12 08:03:23;;;;;;;;;;;22.80;55.50;;;;;;4983109;28;20353;-68
2022/06/12 08:05:48;;;;;;;;;;;22.70;55.30;;;;;;4983653;28;20005;-68
2022/06/12 08:08:14;;;;;;;;;;;22.80;55.50;;;;;;4984145;28;20005;-68
2022/06/12 08:10:39;;;;;;;;;;;22.70;55.40;;;;;;4983539;28;19964;-68
2022/06/12 08:13:06;;;;;;;;;;;22.80;55.50;;;;;;4983884;28;20292;-69
2022/06/12 08:15:32;;;;;;;;;;;22.80;55.70;;;;;;4984477;28;20051;-70
2022/06/12 08:17:57;;;;;;;;;;;22.80;55.50;;;;;;4984188;28;19914;-67
2022/06/12 08:20:28;;;;;;;;;;;22.70;55.50;;;;;;4984083;28;20025;-65
2022/06/12 08:22:54;;;;;;;;;;;22.80;55.50;;;;;;4982922;28;20001;-68
2022/06/12 08:25:19;;;;;;;;;;;22.80;55.50;;;;;;4984095;28;20440;-69
2022/06/12 08:27:45;;;;;;;;;;;22.80;55.60;;;;;;4984599;28;20004;-69
2022/06/12 08:30:11;;;;;;;;;;;22.70;55.60;;;;;;4984048;28;19925;-69
2022/06/12 08:32:36;;;;;;;;;;;22.80;55.60;;;;;;4983598;28;19918;-69
2022/06/12 08:35:04;;;;;;;;;;;22.80;55.50;;;;;;4982596;28;19922;-69
2022/06/12 08:37:33;;;;;;;;;;;22.80;55.60;;;;;;4982420;28;19922;-69
2022/06/12 08:39:59;;;;;;;;;;;22.80;55.60;;;;;;4984025;28;20598;-69
2022/06/12 08:42:43;;;;;;;;;;;22.80;55.50;;;;;;4983627;28;19914;-69
2022/06/12 08:45:22;;;;;;;;;;;22.80;55.60;;;;;;4984081;28;19953;-66
2022/06/12 08:47:52;;;;;;;;;;;22.80;55.60;;;;;;4984673;28;20005;-69
2022/06/12 08:50:36;;;;;;;;;;;22.80;55.60;;;;;;4982751;28;19918;-69
2022/06/12 08:53:02;;;;;;;;;;;22.80;56.30;;;;;;4985133;28;19914;-69
2022/06/12 08:55:35;;;;;;;;;;;22.80;55.50;;;;;;4984791;28;19917;-65
2022/06/12 08:58:03;;;;;;;;;;;22.80;55.50;;;;;;4986463;28;19914;-68
2022/06/12 09:00:32;;;;;;;;;;;22.80;55.60;;;;;;4983404;28;19965;-68
2022/06/12 09:02:58;;;;;;;;;;;22.80;55.70;;;;;;4984465;28;19914;-68
2022/06/12 09:05:26;;;;;;;;;;;22.80;55.60;;;;;;4983576;28;19929;-69
2022/06/12 09:07:54;;;;;;;;;;;22.80;55.60;;;;;;4984139;28;20420;-69
2022/06/12 09:10:26;;;;;;;;;;;22.80;55.90;;;;;;4982359;28;19922;-67
2022/06/12 09:12:55;;;;;;;;;;;22.80;55.80;;;;;;4983924;28;19921;-70
2022/06/12 09:15:38;;;;;;;;;;;22.80;55.80;;;;;;4984159;28;19976;-68
2022/06/12 09:18:23;;;;;;;;;;;22.90;55.80;;;;;;4957256;28;19921;-68
2022/06/12 09:20:55;;;;;;;;;;;22.80;55.70;;;;;;4983033;28;19914;-68
2022/06/12 09:23:24;;;;;;;;;;;22.90;56.00;;;;;;4983772;28;20005;-67
2022/06/12 09:26:13;;;;;;;;;;;22.80;55.90;;;;;;4981718;28;19921;-67
2022/06/12 09:28:52;;;;;;;;;;;22.80;55.90;;;;;;4945555;28;19941;-67
2022/06/12 09:31:19;;;;;;;;;;;22.80;56.20;;;;;;4981924;28;19984;-67
2022/06/12 09:33:49;;;;;;;;;;;22.80;56.10;;;;;;4983447;28;19914;-68
2022/06/12 09:36:15;;;;;;;;;;;22.80;56.10;;;;;;4983719;28;19922;-66
2022/06/12 09:38:40;;;;;;;;;;;22.90;56.10;;;;;;4983769;28;20300;-66
2022/06/12 09:41:13;;;;;;;;;;;22.90;56.00;;;;;;4984157;28;20316;-69
2022/06/12 09:43:53;;;;;;;;;;;22.90;56.00;;;;;;4983283;28;19918;-67
2022/06/12 09:46:31;;;;;;;;;;;22.90;56.10;;;;;;4983440;28;19918;-67
2022/06/12 09:49:07;;;;;;;;;;;22.90;56.30;;;;;;4982246;28;19920;-66
2022/06/12 09:51:48;;;;;;;;;;;22.90;56.30;;;;;;4981599;28;20373;-67
2022/06/12 09:54:14;;;;;;;;;;;22.90;56.40;;;;;;4981375;28;20151;-67
2022/06/12 09:56:44;;;;;;;;;;;22.90;56.10;;;;;;4983658;28;19918;-68
2022/06/12 09:59:28;;;;;;;;;;;22.90;56.10;;;;;;4956623;28;19917;-68
2022/06/12 10:01:54;;;;;;;;;;;22.90;56.20;;;;;;4984696;28;19914;-66
2022/06/12 10:04:21;;;;;;;;;;;22.90;56.10;;;;;;4986839;28;19960;-66
2022/06/12 10:06:51;;;;;;;;;;;22.90;56.10;;;;;;4985926;28;20021;-69
2022/06/12 10:09:24;;;;;;;;;;;22.90;56.20;;;;;;4985721;28;19918;-69
2022/06/12 10:11:58;;;;;;;;;;;22.90;56.30;;;;;;4985112;28;20399;-66
2022/06/12 10:14:28;;;;;;;;;;;22.90;56.60;;;;;;4985064;28;19918;-69
2022/06/12 10:16:58;;;;;;;;;;;22.90;56.70;;;;;;4985186;28;19973;-69
2022/06/12 10:19:28;;;;;;;;;;;22.90;56.60;;;;;;4986392;28;19914;-67
2022/06/12 10:21:54;;;;;;;;;;;22.90;56.90;;;;;;4983999;28;20008;-68
2022/06/12 10:24:20;;;;;;;;;;;22.90;56.70;;;;;;4984955;28;19946;-68
2022/06/12 10:26:56;;;;;;;;;;;23.00;56.90;;;;;;4986454;28;19980;-68
2022/06/12 10:29:24;;;;;;;;;;;22.90;56.40;;;;;;4986183;28;19964;-68
2022/06/12 10:31:57;;;;;;;;;;;23.00;56.50;;;;;;4986038;28;19921;-65
2022/06/12 10:34:23;;;;;;;;;;;23.00;56.50;;;;;;4984700;28;20359;-70
2022/06/12 10:36:49;;;;;;;;;;;23.00;56.40;;;;;;4985916;28;19922;-68
2022/06/12 10:39:16;;;;;;;;;;;23.00;56.40;;;;;;4986317;28;19921;-68
2022/06/12 10:42:00;;;;;;;;;;;23.00;56.70;;;;;;4985556;28;20403;-68
2022/06/12 10:44:30;;;;;;;;;;;23.00;57.10;;;;;;4986013;28;19921;-69
2022/06/12 10:47:06;;;;;;;;;;;23.00;56.50;;;;;;4986021;28;19914;-68
2022/06/12 10:49:31;;;;;;;;;;;23.00;56.70;;;;;;4986551;28;19998;-67
2022/06/12 10:52:03;;;;;;;;;;;23.00;56.70;;;;;;4985487;28;19918;-66
2022/06/12 10:54:28;;;;;;;;;;;23.00;56.90;;;;;;4983891;28;20367;-67
2022/06/12 10:57:01;;;;;;;;;;;23.00;56.40;;;;;;4986085;28;19924;-68
2022/06/12 10:59:34;;;;;;;;;;;23.00;56.90;;;;;;4984395;28;19965;-67
2022/06/12 11:02:18;;;;;;;;;;;23.00;56.60;;;;;;4984109;28;19941;-68
2022/06/12 11:05:02;;;;;;;;;;;23.00;56.70;;;;;;4985497;28;19917;-68
2022/06/12 11:07:30;;;;;;;;;;;23.00;56.60;;;;;;4985402;28;20394;-64
2022/06/12 11:10:07;;;;;;;;;;;23.00;56.70;;;;;;4985633;28;19913;-69
2022/06/12 11:12:41;;;;;;;;;;;23.00;56.40;;;;;;4984318;28;19917;-69
2022/06/12 11:15:25;;;;;;;;;;;23.00;56.60;;;;;;4985142;28;19960;-69
2022/06/12 11:17:54;;;;;;;;;;;23.00;56.40;;;;;;4985186;28;20024;-69
2022/06/12 11:20:26;;;;;;;;;;;23.00;56.60;;;;;;4985443;28;19918;-68
2022/06/12 11:22:51;;;;;;;;;;;23.00;56.60;;;;;;4983653;28;19913;-68
2022/06/12 11:25:21;;;;;;;;;;;23.00;56.40;;;;;;4985475;28;20005;-68
2022/06/12 11:28:04;;;;;;;;;;;23.00;56.40;;;;;;4983696;28;19918;-68
2022/06/12 11:30:39;;;;;;;;;;;23.10;56.70;;;;;;4985572;28;19957;-69
2022/06/12 11:33:24;;;;;;;;;;;23.10;56.60;;;;;;4964200;28;19977;-66
2022/06/12 11:35:49;;;;;;;;;;;23.10;56.70;;;;;;4965882;28;19922;-68
2022/06/12 11:38:17;;;;;;;;;;;23.10;56.60;;;;;;4971548;28;20474;-68
2022/06/12 11:40:55;;;;;;;;;;;23.10;56.80;;;;;;4985533;28;19914;-67
2022/06/12 11:43:21;;;;;;;;;;;23.10;56.60;;;;;;4983657;28;20384;-69
2022/06/12 11:46:05;;;;;;;;;;;23.00;56.50;;;;;;4985041;28;19918;-66
2022/06/12 11:48:33;;;;;;;;;;;23.10;56.70;;;;;;4985149;28;20001;-69
2022/06/12 11:51:03;;;;;;;;;;;23.10;56.50;;;;;;4984930;28;19914;-69
2022/06/12 11:53:38;;;;;;;;;;;23.10;56.50;;;;;;4984310;28;19967;-67
2022/06/12 11:56:14;;;;;;;;;;;23.10;56.50;;;;;;4983441;28;19918;-68
2022/06/12 11:58:59;;;;;;;;;;;23.10;56.50;;;;;;4982354;28;20772;-67
2022/06/12 12:01:28;;;;;;;;;;;23.10;56.50;;;;;;4983564;28;20376;-69
2022/06/12 12:04:15;;;;;;;;;;;23.10;56.60;;;;;;4983859;28;19968;-69
2022/06/12 12:06:58;;;;;;;;;;;23.10;56.40;;;;;;4984989;28;19921;-67
2022/06/12 12:09:32;;;;;;;;;;;23.10;56.50;;;;;;4983517;28;20347;-69
2022/06/12 12:12:00;;;;;;;;;;;23.10;56.50;;;;;;4984282;28;20001;-68
2022/06/12 12:14:27;;;;;;;;;;;23.10;56.60;;;;;;4983320;28;19941;-69
2022/06/12 12:16:54;;;;;;;;;;;23.10;56.50;;;;;;4983881;28;19918;-69
2022/06/12 12:19:24;;;;;;;;;;;23.10;56.40;;;;;;4983945;28;19914;-69
2022/06/12 12:21:59;;;;;;;;;;;23.10;56.40;;;;;;4982407;28;19964;-65
2022/06/12 12:24:29;;;;;;;;;;;23.10;56.40;;;;;;4983384;28;19914;-69
2022/06/12 12:26:57;;;;;;;;;;;23.10;56.40;;;;;;4983479;28;19920;-66
2022/06/12 12:29:24;;;;;;;;;;;23.10;56.60;;;;;;4982729;28;19913;-66
2022/06/12 12:31:49;;;;;;;;;;;23.10;56.50;;;;;;4983075;28;19914;-66
2022/06/12 12:34:15;;;;;;;;;;;23.20;56.40;;;;;;4982653;28;19917;-66
2022/06/12 12:42:19;;;;;;;;;;;23.10;56.40;;;;;;4983883;28;19921;-69
2022/06/12 12:44:46;;;;;;;;;;;23.20;56.50;;;;;;4983340;28;19914;-69
2022/06/12 12:47:16;;;;;;;;;;;23.10;56.30;;;;;;4984401;28;19914;-69
2022/06/12 12:49:42;;;;;;;;;;;23.20;56.40;;;;;;4984301;28;19921;-69
2022/06/12 12:52:10;;;;;;;;;;;23.10;56.30;;;;;;4984493;28;20331;-68
2022/06/12 12:54:51;;;;;;;;;;;23.20;56.40;;;;;;4984024;28;19925;-68
2022/06/12 12:57:17;;;;;;;;;;;23.20;56.40;;;;;;4983749;28;20320;-69
2022/06/12 12:59:44;;;;;;;;;;;23.20;56.30;;;;;;4982669;28;20553;-68
2022/06/12 13:02:15;;;;;;;;;;;23.20;56.30;;;;;;4982990;28;20300;-66
2022/06/12 13:04:41;;;;;;;;;;;23.20;56.40;;;;;;4982253;28;20453;-67
2022/06/12 13:07:27;;;;;;;;;;;23.20;56.40;;;;;;4983806;28;20382;-67
2022/06/12 13:10:01;;;;;;;;;;;23.20;56.40;;;;;;4975985;28;20527;-68
2022/06/12 13:12:32;;;;;;;;;;;23.20;56.30;;;;;;4983657;28;20016;-69
2022/06/12 13:15:27;;;;;;;;;;;23.20;56.30;;;;;;4983085;28;19918;-69
2022/06/12 13:17:59;;;;;;;;;;;23.20;56.30;;;;;;4974160;28;19921;-67
2022/06/12 13:20:30;;;;;;;;;;;23.20;56.30;;;;;;4982398;28;19924;-67
2022/06/12 13:23:09;;;;;;;;;;;23.20;56.20;;;;;;4981941;28;19921;-67
2022/06/12 13:25:38;;;;;;;;;;;23.20;56.20;;;;;;4981975;28;20385;-67
2022/06/12 13:28:04;;;;;;;;;;;23.20;56.20;;;;;;4982228;28;19914;-69
2022/06/12 13:30:38;;;;;;;;;;;23.30;56.20;;;;;;4982892;28;19914;-67
2022/06/12 13:33:10;;;;;;;;;;;23.20;56.10;;;;;;4983148;28;19992;-68
2022/06/12 13:35:40;;;;;;;;;;;23.30;56.20;;;;;;4982853;28;19918;-67
2022/06/12 13:38:06;;;;;;;;;;;23.30;56.20;;;;;;4985797;28;19922;-65
2022/06/12 13:40:33;;;;;;;;;;;23.30;56.20;;;;;;4986857;28;20139;-68
2022/06/12 13:43:02;;;;;;;;;;;23.30;56.10;;;;;;4986580;28;20492;-67
2022/06/12 13:45:28;;;;;;;;;;;23.30;56.10;;;;;;4986960;28;20556;-68
2022/06/12 13:47:53;;;;;;;;;;;23.30;56.10;;;;;;4985853;28;19924;-68
2022/06/12 13:50:48;;;;;;;;;;;23.30;56.10;;;;;;4985408;28;20547;-68
2022/06/12 13:53:14;;;;;;;;;;;23.30;56.10;;;;;;4899739;28;20397;-69
2022/06/12 13:55:43;;;;;;;;;;;23.30;56.10;;;;;;4987032;28;19918;-69
2022/06/12 13:58:15;;;;;;;;;;;23.30;56.10;;;;;;4986990;28;19956;-69
2022/06/12 14:00:45;;;;;;;;;;;23.30;56.00;;;;;;4978267;28;20888;-67
2022/06/12 14:03:21;;;;;;;;;;;23.30;56.00;;;;;;4987033;28;19921;-69
2022/06/12 14:05:49;;;;;;;;;;;23.40;56.00;;;;;;4986911;28;19914;-69
2022/06/12 14:08:14;;;;;;;;;;;23.40;55.90;;;;;;4985403;28;19925;-68
2022/06/12 14:10:40;;;;;;;;;;;23.30;55.90;;;;;;4985421;28;20359;-68
2022/06/12 14:13:07;;;;;;;;;;;23.40;55.90;;;;;;4986164;28;20020;-69
2022/06/12 14:15:36;;;;;;;;;;;23.40;56.00;;;;;;4985344;28;19932;-69
2022/06/12 14:18:02;;;;;;;;;;;23.40;55.90;;;;;;4986681;28;19922;-69
2022/06/12 14:20:29;;;;;;;;;;;23.40;55.90;;;;;;4986588;28;19918;-69
2022/06/12 14:22:58;;;;;;;;;;;23.40;55.90;;;;;;4986356;28;19917;-68
2022/06/12 14:25:24;;;;;;;;;;;23.40;55.80;;;;;;4985279;28;19925;-67
2022/06/12 14:27:58;;;;;;;;;;;23.40;55.80;;;;;;4985501;28;19914;-69
2022/06/12 14:30:55;;;;;;;;;;;23.40;55.80;;;;;;4986869;28;19918;-67
2022/06/12 14:33:22;;;;;;;;;;;23.40;55.80;;;;;;4962966;28;19920;-69
2022/06/12 14:35:47;;;;;;;;;;;23.40;55.80;;;;;;4986066;28;20409;-68
2022/06/12 14:38:16;;;;;;;;;;;23.40;55.70;;;;;;4986347;28;19928;-68
2022/06/12 14:40:42;;;;;;;;;;;23.40;55.70;;;;;;4985598;28;20277;-69
2022/06/12 14:43:15;;;;;;;;;;;23.40;55.70;;;;;;4985420;28;19929;-68